Time;durP1;ratioP1;P1;durP2;ratioP2;P2;SDS_P1;SDS_P2;PMS_P1;PMS_P2;Temp;Humidity;BMP_temperature;BMP_pressure;BME280_temperature;BME280_humidity;BME280_pressure;Samples;Min_cycle;Max_cycle;Signal;HPM_P1;HPM_P2
2022/07/23 00:00:43;;;;;;;8.20;4.45;;;;;;;;;;5042840;28;20115;-71
2022/07/23 00:03:08;;;;;;;6.13;4.55;;;;;;;;;;5037165;28;20040;-72
2022/07/23 00:05:34;;;;;;;5.82;4.35;;;;;;;;;;5037348;28;20110;-70
2022/07/23 00:08:00;;;;;;;5.35;4.45;;;;;;;;;;5041042;28;20021;-72
2022/07/23 00:10:25;;;;;;;4.57;4.10;;;;;;;;;;5043473;28;20029;-71
2022/07/23 00:12:50;;;;;;;5.70;4.50;;;;;;;;;;5042753;28;20484;-73
2022/07/23 00:15:16;;;;;;;6.40;4.32;;;;;;;;;;5041068;28;20029;-73
2022/07/23 00:17:41;;;;;;;4.40;4.00;;;;;;;;;;5030939;28;20503;-73
2022/07/23 00:20:07;;;;;;;8.02;4.35;;;;;;;;;;5028309;28;21120;-74
2022/07/23 00:22:32;;;;;;;6.97;4.45;;;;;;;;;;5038487;28;20097;-72
2022/07/23 00:24:58;;;;;;;8.48;4.63;;;;;;;;;;5041329;28;20063;-73
2022/07/23 00:27:23;;;;;;;6.18;4.15;;;;;;;;;;5041743;28;20032;-75
2022/07/23 00:29:49;;;;;;;6.20;4.13;;;;;;;;;;5041856;28;20013;-70
2022/07/23 00:32:14;;;;;;;5.05;4.05;;;;;;;;;;5031223;28;24150;-71
2022/07/23 00:34:40;;;;;;;4.72;4.22;;;;;;;;;;5029857;28;20175;-73
2022/07/23 00:37:05;;;;;;;6.20;4.72;;;;;;;;;;5038821;28;20037;-71
2022/07/23 00:39:30;;;;;;;4.32;3.92;;;;;;;;;;5041262;28;20393;-74
2022/07/23 00:41:56;;;;;;;6.68;4.15;;;;;;;;;;5041946;28;20025;-71
2022/07/23 00:44:22;;;;;;;5.57;4.40;;;;;;;;;;5041252;28;20040;-74
2022/07/23 00:46:49;;;;;;;6.30;4.57;;;;;;;;;;5033676;28;20021;-71
2022/07/23 00:49:15;;;;;;;5.43;4.35;;;;;;;;;;5029408;28;20093;-73
2022/07/23 00:51:40;;;;;;;6.70;4.40;;;;;;;;;;5040849;28;20413;-72
2022/07/23 00:54:06;;;;;;;5.13;4.40;;;;;;;;;;5039556;28;20041;-72
2022/07/23 00:56:32;;;;;;;5.03;4.30;;;;;;;;;;5040492;28;20478;-72
2022/07/23 00:58:59;;;;;;;5.20;4.45;;;;;;;;;;5041022;28;20038;-71
2022/07/23 01:01:24;;;;;;;4.90;4.35;;;;;;;;;;5034710;28;20048;-73
2022/07/23 01:03:49;;;;;;;4.63;4.22;;;;;;;;;;5029432;28;20142;-72
2022/07/23 01:06:15;;;;;;;5.05;4.55;;;;;;;;;;5021114;28;20036;-74
2022/07/23 01:08:41;;;;;;;5.13;4.63;;;;;;;;;;5040819;28;20024;-73
2022/07/23 01:11:07;;;;;;;5.05;4.60;;;;;;;;;;5041164;28;20022;-73
2022/07/23 01:13:32;;;;;;;5.05;4.43;;;;;;;;;;5040013;28;20036;-75
2022/07/23 01:15:57;;;;;;;7.25;4.57;;;;;;;;;;5037220;28;20120;-72
2022/07/23 01:18:23;;;;;;;6.82;4.25;;;;;;;;;;5029535;28;20162;-72
2022/07/23 01:20:49;;;;;;;4.82;4.43;;;;;;;;;;5031956;28;20032;-73
2022/07/23 01:23:14;;;;;;;7.15;4.75;;;;;;;;;;5031827;28;20052;-73
2022/07/23 01:25:47;;;;;;;8.55;4.20;;;;;;;;;;5039140;28;20044;-76
2022/07/23 01:28:12;;;;;;;5.13;4.57;;;;;;;;;;5032238;28;20113;-71
2022/07/23 01:30:37;;;;;;;5.72;4.60;;;;;;;;;;5032518;28;20112;-71
2022/07/23 01:33:03;;;;;;;4.93;4.43;;;;;;;;;;5030520;28;20064;-71
2022/07/23 01:35:28;;;;;;;6.28;4.53;;;;;;;;;;5031662;28;20029;-71
2022/07/23 01:37:54;;;;;;;4.45;4.05;;;;;;;;;;5030298;28;20127;-71
2022/07/23 01:40:19;;;;;;;5.15;4.57;;;;;;;;;;5040371;28;20372;-71
2022/07/23 01:42:44;;;;;;;5.15;4.65;;;;;;;;;;5033311;28;20033;-74
2022/07/23 01:45:10;;;;;;;6.28;4.65;;;;;;;;;;5038260;28;20029;-74
2022/07/23 01:47:35;;;;;;;5.40;4.90;;;;;;;;;;5026292;28;20523;-72
2022/07/23 01:50:00;;;;;;;5.00;4.60;;;;;;;;;;5030359;28;20032;-74
2022/07/23 01:52:26;;;;;;;5.15;4.57;;;;;;;;;;5038993;28;20041;-73
2022/07/23 01:54:51;;;;;;;6.15;4.25;;;;;;;;;;5039927;28;20035;-71
2022/07/23 01:57:16;;;;;;;6.03;4.43;;;;;;;;;;5026714;28;20115;-71
2022/07/23 01:59:42;;;;;;;5.43;4.53;;;;;;;;;;5040476;28;20035;-73
2022/07/23 02:02:07;;;;;;;5.72;4.85;;;;;;;;;;5031346;28;20029;-71
2022/07/23 02:04:36;;;;;;;5.60;4.50;;;;;;;;;;5031235;28;20033;-71
2022/07/23 02:07:01;;;;;;;5.82;4.18;;;;;;;;;;5028209;28;20327;-72
2022/07/23 02:09:27;;;;;;;5.85;4.57;;;;;;;;;;5028871;28;20741;-71
2022/07/23 02:11:52;;;;;;;4.97;4.45;;;;;;;;;;5040373;28;20344;-72
2022/07/23 02:14:17;;;;;;;4.70;4.30;;;;;;;;;;5033554;28;20025;-71
2022/07/23 02:16:43;;;;;;;4.40;4.00;;;;;;;;;;5027293;28;20029;-74
2022/07/23 02:19:08;;;;;;;5.07;4.53;;;;;;;;;;5032475;28;20029;-72
2022/07/23 02:21:33;;;;;;;6.57;4.88;;;;;;;;;;5035008;28;20025;-73
2022/07/23 02:23:59;;;;;;;7.40;4.55;;;;;;;;;;5039998;28;20497;-73
2022/07/23 02:26:24;;;;;;;6.68;4.65;;;;;;;;;;5039713;28;20048;-71
2022/07/23 02:28:49;;;;;;;9.82;4.60;;;;;;;;;;5039777;28;20028;-73
2022/07/23 02:31:15;;;;;;;5.65;4.90;;;;;;;;;;5040721;28;20034;-71
2022/07/23 02:33:40;;;;;;;5.30;4.78;;;;;;;;;;5039060;28;20021;-72
2022/07/23 02:36:06;;;;;;;7.35;4.57;;;;;;;;;;5028261;28;20032;-71
2022/07/23 02:38:31;;;;;;;5.82;4.70;;;;;;;;;;5027523;28;20449;-72
2022/07/23 02:40:57;;;;;;;5.25;4.68;;;;;;;;;;5026887;28;20033;-71
2022/07/23 02:43:22;;;;;;;6.28;5.05;;;;;;;;;;5028022;28;20033;-70
2022/07/23 02:45:47;;;;;;;5.30;4.80;;;;;;;;;;5028931;28;20096;-75
2022/07/23 02:48:13;;;;;;;5.07;4.57;;;;;;;;;;5027515;28;20029;-72
2022/07/23 02:50:39;;;;;;;6.60;4.60;;;;;;;;;;5029366;28;20072;-71
2022/07/23 02:53:04;;;;;;;6.43;4.93;;;;;;;;;;5027492;28;20128;-72
2022/07/23 02:55:31;;;;;;;5.85;5.22;;;;;;;;;;5027239;28;20053;-71
2022/07/23 02:57:56;;;;;;;5.85;4.68;;;;;;;;;;5029305;28;20092;-72
2022/07/23 03:00:21;;;;;;;5.68;4.68;;;;;;;;;;5038967;28;20111;-74
2022/07/23 03:02:47;;;;;;;5.95;5.22;;;;;;;;;;5027117;28;20116;-72
2022/07/23 03:05:12;;;;;;;6.15;4.78;;;;;;;;;;5038609;28;20086;-71
2022/07/23 03:07:37;;;;;;;6.30;5.03;;;;;;;;;;5039503;28;20025;-73
2022/07/23 03:10:03;;;;;;;6.13;5.00;;;;;;;;;;5039339;28;20017;-71
2022/07/23 03:12:28;;;;;;;5.70;5.10;;;;;;;;;;5039111;28;20441;-71
2022/07/23 03:14:54;;;;;;;6.47;4.82;;;;;;;;;;5039649;28;20029;-71
2022/07/23 03:17:19;;;;;;;6.43;5.18;;;;;;;;;;5038918;28;20502;-72
2022/07/23 03:19:44;;;;;;;10.15;5.45;;;;;;;;;;5039169;28;20036;-73
2022/07/23 03:22:10;;;;;;;5.85;5.07;;;;;;;;;;5029413;28;20040;-72
2022/07/23 03:24:53;;;;;;;5.68;5.10;;;;;;;;;;5039264;28;20423;-72
2022/07/23 03:27:19;;;;;;;5.38;4.82;;;;;;;;;;5043245;28;20039;-72
2022/07/23 03:29:45;;;;;;;5.10;4.60;;;;;;;;;;5042287;28;20025;-74
2022/07/23 03:32:10;;;;;;;5.88;5.28;;;;;;;;;;5042702;28;20358;-72
2022/07/23 03:34:35;;;;;;;7.18;4.93;;;;;;;;;;5043349;28;20036;-71
2022/07/23 03:37:01;;;;;;;4.82;4.43;;;;;;;;;;5042819;28;20029;-71
2022/07/23 03:39:26;;;;;;;9.35;5.32;;;;;;;;;;5041919;28;20021;-71
2022/07/23 03:41:51;;;;;;;5.45;4.63;;;;;;;;;;5043109;28;20021;-73
2022/07/23 03:44:17;;;;;;;5.90;5.40;;;;;;;;;;5041805;28;20029;-72
2022/07/23 03:46:42;;;;;;;5.30;4.75;;;;;;;;;;5035780;28;20035;-75
2022/07/23 03:49:07;;;;;;;6.47;5.07;;;;;;;;;;5042881;28;20037;-72
2022/07/23 03:51:33;;;;;;;7.72;5.60;;;;;;;;;;5041444;28;20093;-72
2022/07/23 03:53:58;;;;;;;8.38;5.55;;;;;;;;;;5042331;28;20735;-74
2022/07/23 03:56:24;;;;;;;6.75;5.28;;;;;;;;;;5041483;28;20360;-72
2022/07/23 03:58:49;;;;;;;5.65;5.15;;;;;;;;;;5042979;28;20033;-72
2022/07/23 04:01:14;;;;;;;6.18;5.57;;;;;;;;;;5041780;28;20645;-71
2022/07/23 04:03:40;;;;;;;8.50;5.20;;;;;;;;;;5042161;28;20025;-71
2022/07/23 04:06:05;;;;;;;7.70;5.68;;;;;;;;;;5042403;28;20086;-71
2022/07/23 04:08:31;;;;;;;5.80;5.20;;;;;;;;;;5042587;28;20055;-71
2022/07/23 04:10:56;;;;;;;10.38;5.40;;;;;;;;;;5042426;28;20433;-74
2022/07/23 04:13:22;;;;;;;6.28;5.43;;;;;;;;;;5041175;28;20151;-72
2022/07/23 04:15:47;;;;;;;9.70;5.13;;;;;;;;;;5041686;28;20029;-71
2022/07/23 04:18:13;;;;;;;5.45;4.95;;;;;;;;;;5042307;28;20033;-72
2022/07/23 04:20:38;;;;;;;8.65;5.57;;;;;;;;;;5034886;28;20029;-73
2022/07/23 04:23:03;;;;;;;7.07;5.75;;;;;;;;;;5038995;28;20066;-71
2022/07/23 04:25:29;;;;;;;6.55;5.22;;;;;;;;;;5041925;28;20329;-71
2022/07/23 04:27:54;;;;;;;6.00;5.47;;;;;;;;;;5041513;28;20051;-72
2022/07/23 04:30:20;;;;;;;7.07;5.35;;;;;;;;;;5042241;28;20029;-72
2022/07/23 04:32:45;;;;;;;7.68;5.40;;;;;;;;;;5042158;28;20025;-71
2022/07/23 04:35:10;;;;;;;6.50;5.55;;;;;;;;;;5040846;28;20061;-72
2022/07/23 04:37:36;;;;;;;8.20;5.88;;;;;;;;;;5040871;28;20017;-71
2022/07/23 04:40:01;;;;;;;9.48;5.35;;;;;;;;;;5040819;28;20433;-74
2022/07/23 04:42:27;;;;;;;6.65;5.40;;;;;;;;;;5040053;28;20128;-72
2022/07/23 04:44:52;;;;;;;6.60;5.03;;;;;;;;;;5042235;28;20413;-72
2022/07/23 04:47:17;;;;;;;8.68;5.57;;;;;;;;;;5042115;28;20025;-73
2022/07/23 04:49:43;;;;;;;6.35;5.45;;;;;;;;;;5041698;28;20025;-72
2022/07/23 04:52:08;;;;;;;9.25;6.22;;;;;;;;;;5041441;28;20174;-72
2022/07/23 04:54:33;;;;;;;7.97;5.20;;;;;;;;;;5040923;28;20091;-72
2022/07/23 04:56:59;;;;;;;8.68;5.80;;;;;;;;;;5037581;28;20151;-73
2022/07/23 04:59:24;;;;;;;11.82;5.47;;;;;;;;;;5030620;28;20731;-72
2022/07/23 05:01:49;;;;;;;7.47;5.50;;;;;;;;;;5030847;28;20051;-73
2022/07/23 05:04:15;;;;;;;7.38;5.00;;;;;;;;;;5032349;28;20036;-72
2022/07/23 05:06:40;;;;;;;6.45;5.20;;;;;;;;;;5034021;28;20036;-76
2022/07/23 05:09:05;;;;;;;7.43;4.93;;;;;;;;;;5030206;28;20037;-74
2022/07/23 05:11:31;;;;;;;7.32;4.78;;;;;;;;;;5036386;28;20089;-72
2022/07/23 05:13:56;;;;;;;7.05;5.05;;;;;;;;;;5029638;28;20139;-72
2022/07/23 05:16:21;;;;;;;7.15;5.28;;;;;;;;;;5031102;28;20403;-71
2022/07/23 05:18:47;;;;;;;7.13;5.18;;;;;;;;;;5029668;28;20017;-75
2022/07/23 05:21:12;;;;;;;5.57;5.05;;;;;;;;;;5029175;28;20084;-71
2022/07/23 05:23:38;;;;;;;7.30;4.95;;;;;;;;;;5040438;28;20029;-72
2022/07/23 05:26:03;;;;;;;5.30;4.80;;;;;;;;;;5040891;28;20056;-72
2022/07/23 05:28:28;;;;;;;7.93;5.18;;;;;;;;;;5035179;28;20388;-73
2022/07/23 05:30:54;;;;;;;7.22;4.88;;;;;;;;;;5028963;28;20028;-73
2022/07/23 05:33:19;;;;;;;5.85;5.10;;;;;;;;;;5027783;28;21202;-77
2022/07/23 05:35:45;;;;;;;6.40;4.88;;;;;;;;;;5040266;28;20032;-74
2022/07/23 05:38:10;;;;;;;5.00;4.47;;;;;;;;;;5034687;28;20060;-72
2022/07/23 05:40:35;;;;;;;6.97;4.70;;;;;;;;;;5031466;28;20033;-72
2022/07/23 05:43:01;;;;;;;8.25;4.13;;;;;;;;;;5029319;28;20037;-72
2022/07/23 05:45:26;;;;;;;6.30;4.88;;;;;;;;;;5028614;28;20360;-71
2022/07/23 05:47:51;;;;;;;5.75;4.97;;;;;;;;;;5028162;28;20108;-73
2022/07/23 05:50:17;;;;;;;7.03;5.10;;;;;;;;;;5027928;28;20028;-71
2022/07/23 05:52:43;;;;;;;6.07;4.65;;;;;;;;;;5027723;28;20422;-76
2022/07/23 05:55:08;;;;;;;5.63;5.00;;;;;;;;;;5034528;28;20025;-73
2022/07/23 05:57:34;;;;;;;6.28;5.03;;;;;;;;;;5041003;28;20045;-74
2022/07/23 05:59:59;;;;;;;7.40;5.20;;;;;;;;;;5040967;28;20563;-76
2022/07/23 06:02:25;;;;;;;7.43;5.07;;;;;;;;;;5041815;28;20036;-74
2022/07/23 06:04:50;;;;;;;6.38;4.95;;;;;;;;;;5040630;28;20408;-74
2022/07/23 06:07:15;;;;;;;6.93;5.25;;;;;;;;;;5040547;28;20114;-74
2022/07/23 06:09:41;;;;;;;7.38;5.18;;;;;;;;;;5030221;28;20028;-74
2022/07/23 06:12:06;;;;;;;5.88;5.25;;;;;;;;;;5041591;28;20029;-74
2022/07/23 06:14:32;;;;;;;8.15;5.50;;;;;;;;;;5038190;28;20425;-74
2022/07/23 06:16:57;;;;;;;7.95;5.03;;;;;;;;;;5026576;28;20338;-74
2022/07/23 06:19:22;;;;;;;6.05;5.13;;;;;;;;;;5027851;28;20120;-74
2022/07/23 06:21:48;;;;;;;7.05;4.78;;;;;;;;;;5027823;28;20033;-77
2022/07/23 06:24:13;;;;;;;5.13;4.57;;;;;;;;;;5037512;28;20088;-77
2022/07/23 06:26:38;;;;;;;10.00;4.88;;;;;;;;;;5039122;28;20032;-73
2022/07/23 06:29:04;;;;;;;8.02;4.75;;;;;;;;;;5027374;28;20504;-74
2022/07/23 06:31:29;;;;;;;11.32;5.28;;;;;;;;;;5027128;28;20072;-73
2022/07/23 06:33:55;;;;;;;9.05;4.70;;;;;;;;;;5025842;28;20107;-73
2022/07/23 06:36:20;;;;;;;6.03;5.38;;;;;;;;;;5026163;28;20033;-76
2022/07/23 06:38:45;;;;;;;9.25;5.13;;;;;;;;;;5021692;28;20108;-73
2022/07/23 06:41:11;;;;;;;5.57;4.75;;;;;;;;;;5031314;28;20028;-74
2022/07/23 06:43:36;;;;;;;5.15;4.65;;;;;;;;;;5028742;28;20456;-76
2022/07/23 06:46:02;;;;;;;5.80;5.20;;;;;;;;;;5027611;28;20037;-73
2022/07/23 06:48:28;;;;;;;5.60;5.10;;;;;;;;;;5030152;28;20029;-73
2022/07/23 06:50:54;;;;;;;7.07;4.47;;;;;;;;;;5041856;28;20048;-76
2022/07/23 06:53:20;;;;;;;7.25;4.90;;;;;;;;;;5040718;28;20481;-75
2022/07/23 06:55:45;;;;;;;6.65;4.68;;;;;;;;;;5040487;28;20432;-72
2022/07/23 06:58:10;;;;;;;6.25;4.80;;;;;;;;;;5038011;28;20040;-78
2022/07/23 07:00:36;;;;;;;7.65;4.70;;;;;;;;;;5033939;28;20024;-74
2022/07/23 07:03:02;;;;;;;6.03;4.80;;;;;;;;;;5044685;28;20532;-75
2022/07/23 07:05:28;;;;;;;7.68;4.65;;;;;;;;;;5042195;28;20097;-74
2022/07/23 07:07:54;;;;;;;14.63;5.00;;;;;;;;;;5035431;28;20041;-75
2022/07/23 07:10:19;;;;;;;6.18;4.57;;;;;;;;;;5044127;28;20107;-74
2022/07/23 07:12:45;;;;;;;4.75;4.25;;;;;;;;;;5045306;28;20128;-71
2022/07/23 07:15:11;;;;;;;8.25;4.95;;;;;;;;;;5045295;28;20075;-78
2022/07/23 07:17:36;;;;;;;8.68;4.85;;;;;;;;;;5040022;28;20040;-74
2022/07/23 07:20:02;;;;;;;6.65;4.47;;;;;;;;;;5038091;28;20029;-71
2022/07/23 07:22:27;;;;;;;7.60;5.05;;;;;;;;;;5043969;28;20305;-74
2022/07/23 07:24:53;;;;;;;5.32;4.57;;;;;;;;;;5044101;28;20059;-73
2022/07/23 07:27:18;;;;;;;7.38;5.00;;;;;;;;;;5045007;28;20035;-75
2022/07/23 07:29:43;;;;;;;7.10;4.70;;;;;;;;;;5043576;28;20159;-72
2022/07/23 07:32:09;;;;;;;5.95;4.35;;;;;;;;;;5044486;28;20069;-73
2022/07/23 07:34:34;;;;;;;7.65;5.00;;;;;;;;;;5034728;28;20029;-81
2022/07/23 07:36:59;;;;;;;7.03;4.70;;;;;;;;;;5038791;28;20029;-76
2022/07/23 07:39:25;;;;;;;7.80;4.93;;;;;;;;;;5042644;28;20442;-73
2022/07/23 07:41:50;;;;;;;6.47;4.40;;;;;;;;;;5031424;28;20032;-77
2022/07/23 07:44:16;;;;;;;9.80;4.80;;;;;;;;;;5030835;28;20134;-75
2022/07/23 07:46:41;;;;;;;9.15;4.32;;;;;;;;;;5031195;28;20029;-74
2022/07/23 07:49:07;;;;;;;7.70;4.30;;;;;;;;;;5029746;28;20035;-74
2022/07/23 07:51:32;;;;;;;7.03;5.00;;;;;;;;;;5030038;28;20032;-71
2022/07/23 07:53:58;;;;;;;5.57;4.35;;;;;;;;;;5041732;28;20037;-71
2022/07/23 07:56:23;;;;;;;8.40;4.97;;;;;;;;;;5044181;28;20040;-76
2022/07/23 07:58:49;;;;;;;4.53;4.13;;;;;;;;;;5043705;28;20033;-74
2022/07/23 08:01:14;;;;;;;7.47;4.72;;;;;;;;;;5044584;28;20036;-77
2022/07/23 08:03:39;;;;;;;5.63;4.20;;;;;;;;;;5043192;28;20499;-77
2022/07/23 08:06:05;;;;;;;5.15;4.07;;;;;;;;;;5030347;28;20186;-74
2022/07/23 08:08:30;;;;;;;9.25;4.50;;;;;;;;;;5043106;28;20032;-76
2022/07/23 08:10:55;;;;;;;6.90;4.18;;;;;;;;;;5032720;28;20021;-72
2022/07/23 08:13:21;;;;;;;7.63;3.90;;;;;;;;;;5031246;28;20441;-74
2022/07/23 08:15:46;;;;;;;5.90;4.00;;;;;;;;;;5029466;28;20433;-72
2022/07/23 08:18:11;;;;;;;5.35;4.15;;;;;;;;;;5035950;28;20352;-73
2022/07/23 08:20:37;;;;;;;11.07;4.68;;;;;;;;;;5042179;28;20028;-71
2022/07/23 08:23:03;;;;;;;5.20;4.15;;;;;;;;;;5043132;28;20020;-77
2022/07/23 08:25:30;;;;;;;9.13;4.07;;;;;;;;;;5044017;28;20115;-74
2022/07/23 08:27:56;;;;;;;6.93;4.43;;;;;;;;;;5042951;28;20177;-72
2022/07/23 08:30:21;;;;;;;9.25;4.38;;;;;;;;;;5043941;28;20212;-71
2022/07/23 08:33:07;;;;;;;6.38;3.95;;;;;;;;;;5032237;28;20174;-74
2022/07/23 08:35:37;;;;;;;4.13;3.65;;;;;;;;;;5049603;28;20040;-73
2022/07/23 08:38:04;;;;;;;4.57;3.83;;;;;;;;;;5034132;28;20052;-73
2022/07/23 08:40:30;;;;;;;7.47;4.80;;;;;;;;;;5046641;28;20017;-72
2022/07/23 08:42:55;;;;;;;4.55;3.67;;;;;;;;;;5046761;28;20037;-70
2022/07/23 08:45:22;;;;;;;9.45;4.35;;;;;;;;;;5049688;28;20059;-70
2022/07/23 08:47:58;;;;;;;5.95;3.50;;;;;;;;;;5048128;28;20025;-79
2022/07/23 08:50:24;;;;;;;4.55;3.78;;;;;;;;;;5050624;28;20044;-72
2022/07/23 08:52:50;;;;;;;5.97;4.38;;;;;;;;;;5047471;28;20448;-75
2022/07/23 08:55:16;;;;;;;4.38;3.95;;;;;;;;;;5047125;28;20065;-75
2022/07/23 08:57:41;;;;;;;3.72;3.20;;;;;;;;;;5049219;28;20088;-70
2022/07/23 09:00:07;;;;;;;8.70;4.38;;;;;;;;;;5032502;28;20429;-77
2022/07/23 09:02:38;;;;;;;4.93;3.83;;;;;;;;;;5031491;28;20082;-75
2022/07/23 09:05:03;;;;;;;4.85;3.95;;;;;;;;;;5032612;28;20036;-81
2022/07/23 09:07:29;;;;;;;5.72;3.72;;;;;;;;;;5031018;28;20348;-78
2022/07/23 09:10:05;;;;;;;7.22;3.60;;;;;;;;;;5040869;28;20028;-81
2022/07/23 09:12:31;;;;;;;5.60;3.85;;;;;;;;;;5029976;28;20408;-72
2022/07/23 09:15:03;;;;;;;4.13;3.42;;;;;;;;;;5041129;28;20548;-78
2022/07/23 09:17:35;;;;;;;6.20;3.85;;;;;;;;;;5039022;28;20021;-80
2022/07/23 09:20:14;;;;;;;4.90;3.25;;;;;;;;;;5039211;28;20025;-71
2022/07/23 09:22:45;;;;;;;5.63;3.90;;;;;;;;;;5040472;28;20128;-73
2022/07/23 09:25:13;;;;;;;4.50;3.85;;;;;;;;;;5041060;28;20116;-73
2022/07/23 09:27:54;;;;;;;6.05;3.22;;;;;;;;;;5040761;28;20120;-73
2022/07/23 09:30:23;;;;;;;8.20;3.83;;;;;;;;;;5040124;28;20120;-76
2022/07/23 09:33:07;;;;;;;4.15;3.63;;;;;;;;;;5040971;28;20130;-82
2022/07/23 09:35:51;;;;;;;5.55;3.65;;;;;;;;;;5039571;28;20348;-74
2022/07/23 09:38:17;;;;;;;7.07;4.18;;;;;;;;;;5041043;28;20108;-75
2022/07/23 09:40:43;;;;;;;4.88;3.42;;;;;;;;;;5041891;28;20119;-74
2022/07/23 09:43:08;;;;;;;4.82;3.88;;;;;;;;;;5041553;28;20033;-73
2022/07/23 09:45:34;;;;;;;6.18;3.47;;;;;;;;;;5041650;28;20459;-75
2022/07/23 09:48:12;;;;;;;4.95;4.00;;;;;;;;;;5040183;28;20444;-74
2022/07/23 09:50:38;;;;;;;6.60;3.92;;;;;;;;;;5040179;28;20036;-83
2022/07/23 09:53:04;;;;;;;8.10;3.45;;;;;;;;;;5036717;28;20128;-74
2022/07/23 09:55:39;;;;;;;7.32;3.70;;;;;;;;;;5009715;28;20067;-79
2022/07/23 09:58:06;;;;;;;8.85;3.58;;;;;;;;;;5007797;28;20021;-74
2022/07/23 10:00:32;;;;;;;5.72;3.53;;;;;;;;;;5009738;28;20040;-75
2022/07/23 10:02:58;;;;;;;5.63;3.85;;;;;;;;;;5010872;28;20037;-77
2022/07/23 10:05:24;;;;;;;6.80;3.95;;;;;;;;;;5011966;28;20112;-74
2022/07/23 10:07:50;;;;;;;7.65;4.35;;;;;;;;;;5020815;28;20021;-74
2022/07/23 10:10:17;;;;;;;8.10;4.38;;;;;;;;;;5009332;28;20347;-75
2022/07/23 10:15:27;;;;;;;4.95;3.80;;;;;;;;;;5015821;28;20029;-74
2022/07/23 10:17:52;;;;;;;7.32;4.32;;;;;;;;;;5013579;28;20400;-82
2022/07/23 10:20:17;;;;;;;6.90;3.92;;;;;;;;;;5016721;28;20029;-76
2022/07/23 10:22:59;;;;;;;9.75;4.43;;;;;;;;;;5021863;28;20139;-73
2022/07/23 10:25:41;;;;;;;6.18;4.13;;;;;;;;;;5020800;28;20086;-75
2022/07/23 10:28:15;;;;;;;7.10;4.13;;;;;;;;;;5010514;28;20033;-74
2022/07/23 10:30:59;;;;;;;7.10;3.60;;;;;;;;;;5006430;28;20597;-76
2022/07/23 10:33:32;;;;;;;5.88;3.92;;;;;;;;;;5011100;28;20029;-74
2022/07/23 10:35:57;;;;;;;7.35;4.07;;;;;;;;;;5015625;28;20109;-76
2022/07/23 10:38:37;;;;;;;5.60;3.40;;;;;;;;;;5025227;28;20106;-74
2022/07/23 10:41:03;;;;;;;7.90;4.00;;;;;;;;;;5024498;28;20254;-80
2022/07/23 10:43:29;;;;;;;5.60;4.15;;;;;;;;;;5023505;28;20037;-75
2022/07/23 10:45:55;;;;;;;6.85;3.92;;;;;;;;;;5023754;28;20079;-73
2022/07/23 10:48:22;;;;;;;7.47;3.40;;;;;;;;;;5008713;28;20464;-81
2022/07/23 10:51:06;;;;;;;8.25;4.10;;;;;;;;;;5021923;28;20064;-75
2022/07/23 10:53:50;;;;;;;7.32;4.03;;;;;;;;;;5037380;28;20053;-74
2022/07/23 10:56:16;;;;;;;6.55;4.20;;;;;;;;;;5046976;28;20024;-74
2022/07/23 10:58:50;;;;;;;6.63;4.22;;;;;;;;;;5040325;28;20085;-83
2022/07/23 11:01:32;;;;;;;7.75;3.85;;;;;;;;;;5028456;28;20175;-82
2022/07/23 11:03:58;;;;;;;5.55;3.97;;;;;;;;;;5034105;28;20032;-77
2022/07/23 11:06:24;;;;;;;8.35;4.45;;;;;;;;;;5032200;28;20048;-78
2022/07/23 11:09:09;;;;;;;7.20;4.03;;;;;;;;;;5028005;28;20055;-75
2022/07/23 11:11:34;;;;;;;8.85;3.92;;;;;;;;;;5035127;28;20041;-76
2022/07/23 11:14:00;;;;;;;4.53;3.53;;;;;;;;;;5031857;28;20085;-75
2022/07/23 11:16:25;;;;;;;9.75;3.92;;;;;;;;;;5041450;28;20028;-77
2022/07/23 11:18:58;;;;;;;11.52;4.50;;;;;;;;;;5033692;28;20457;-77
2022/07/23 11:21:28;;;;;;;11.32;4.65;;;;;;;;;;5030864;28;20472;-75
2022/07/23 11:23:57;;;;;;;7.82;4.18;;;;;;;;;;5030054;28;20025;-75
2022/07/23 11:26:37;;;;;;;8.65;3.90;;;;;;;;;;5028510;28;20910;-75
2022/07/23 11:29:22;;;;;;;8.32;4.25;;;;;;;;;;5030513;28;20033;-77
2022/07/23 11:31:53;;;;;;;7.55;4.05;;;;;;;;;;5031941;28;20031;-81
2022/07/23 11:34:37;;;;;;;7.45;4.13;;;;;;;;;;5028018;28;20035;-77
2022/07/23 11:37:03;;;;;;;7.75;3.97;;;;;;;;;;5040294;28;20517;-75
2022/07/23 11:39:30;;;;;;;10.40;4.07;;;;;;;;;;5043688;28;21075;-74
2022/07/23 11:41:56;;;;;;;9.85;4.05;;;;;;;;;;5043137;28;20021;-74
2022/07/23 11:44:28;;;;;;;11.77;4.32;;;;;;;;;;5043385;28;20101;-76
2022/07/23 11:46:57;;;;;;;5.70;3.70;;;;;;;;;;5042060;28;20040;-75
2022/07/23 11:49:23;;;;;;;5.40;4.28;;;;;;;;;;5043734;28;20104;-82
2022/07/23 11:52:05;;;;;;;8.80;4.18;;;;;;;;;;5042397;28;20107;-75
2022/07/23 11:54:31;;;;;;;8.10;4.47;;;;;;;;;;5043556;28;20131;-76
2022/07/23 11:56:57;;;;;;;7.60;3.72;;;;;;;;;;5043250;28;20103;-74
2022/07/23 11:59:23;;;;;;;7.45;4.10;;;;;;;;;;5042668;28;20427;-74
2022/07/23 12:02:02;;;;;;;8.23;4.10;;;;;;;;;;5030348;28;20035;-72
2022/07/23 12:04:40;;;;;;;8.10;3.67;;;;;;;;;;5042646;28;20108;-75
2022/07/23 12:07:25;;;;;;;8.27;3.88;;;;;;;;;;5042314;28;20024;-78
2022/07/23 12:09:51;;;;;;;11.73;6.00;;;;;;;;;;5031090;28;20033;-77
2022/07/23 12:12:16;;;;;;;10.52;4.28;;;;;;;;;;5043682;28;20040;-73
2022/07/23 12:14:52;;;;;;;6.80;4.50;;;;;;;;;;5043171;28;20035;-74
2022/07/23 12:17:17;;;;;;;9.10;4.95;;;;;;;;;;5043390;28;20040;-76
2022/07/23 12:19:43;;;;;;;6.35;3.88;;;;;;;;;;5042844;28;20047;-72
2022/07/23 12:22:08;;;;;;;6.55;3.63;;;;;;;;;;5042828;28;20032;-74
2022/07/23 12:24:52;;;;;;;8.27;4.10;;;;;;;;;;5043492;28;20030;-72
2022/07/23 12:27:20;;;;;;;7.68;4.07;;;;;;;;;;5040254;28;20040;-80
2022/07/23 12:29:45;;;;;;;7.88;4.03;;;;;;;;;;5028208;28;20029;-74
2022/07/23 12:32:18;;;;;;;6.30;3.65;;;;;;;;;;5042187;28;20098;-74
2022/07/23 12:34:43;;;;;;;6.95;3.72;;;;;;;;;;5032340;28;20037;-76
2022/07/23 12:37:24;;;;;;;6.80;3.92;;;;;;;;;;5029654;28;20025;-74
2022/07/23 12:39:49;;;;;;;5.22;3.95;;;;;;;;;;5033418;28;20033;-74
2022/07/23 12:42:14;;;;;;;5.40;4.10;;;;;;;;;;5029470;28;20040;-79
2022/07/23 12:44:40;;;;;;;10.53;4.20;;;;;;;;;;5029871;28;20036;-73
2022/07/23 12:47:05;;;;;;;6.80;4.18;;;;;;;;;;5033056;28;20261;-72
2022/07/23 12:49:30;;;;;;;7.65;3.45;;;;;;;;;;5031361;28;20025;-78
2022/07/23 12:51:56;;;;;;;6.50;3.97;;;;;;;;;;5030357;28;20075;-74
2022/07/23 12:54:27;;;;;;;13.35;4.10;;;;;;;;;;5034414;28;20052;-80
2022/07/23 12:56:52;;;;;;;7.95;4.15;;;;;;;;;;5028108;28;20013;-75
2022/07/23 12:59:18;;;;;;;6.43;4.13;;;;;;;;;;5027044;28;20032;-79
2022/07/23 13:01:48;;;;;;;6.60;3.53;;;;;;;;;;5027539;28;20577;-73
2022/07/23 13:04:14;;;;;;;8.57;4.40;;;;;;;;;;5027621;28;20071;-76
2022/07/23 13:06:44;;;;;;;7.60;3.55;;;;;;;;;;5027632;28;20040;-75
2022/07/23 13:09:10;;;;;;;7.68;3.88;;;;;;;;;;5026461;28;20026;-77
2022/07/23 13:11:35;;;;;;;9.68;4.00;;;;;;;;;;5027096;28;20036;-73
2022/07/23 13:14:01;;;;;;;5.78;3.90;;;;;;;;;;5026417;28;20064;-76
2022/07/23 13:16:27;;;;;;;7.30;3.67;;;;;;;;;;5025170;28;20036;-74
2022/07/23 13:18:53;;;;;;;11.35;4.30;;;;;;;;;;5026902;28;20025;-73
2022/07/23 13:21:18;;;;;;;7.93;3.90;;;;;;;;;;5027970;28;20024;-77
2022/07/23 13:23:44;;;;;;;7.97;3.85;;;;;;;;;;5026928;28;20406;-75
2022/07/23 13:26:09;;;;;;;6.65;4.18;;;;;;;;;;5028521;28;20036;-74
2022/07/23 13:28:34;;;;;;;4.75;3.80;;;;;;;;;;5027760;28;20413;-74
2022/07/23 13:31:00;;;;;;;8.02;4.22;;;;;;;;;;5026226;28;20028;-74
2022/07/23 13:33:25;;;;;;;6.30;3.72;;;;;;;;;;5028855;28;20032;-76
2022/07/23 13:35:51;;;;;;;9.35;3.65;;;;;;;;;;5032548;28;20025;-73
2022/07/23 13:38:17;;;;;;;6.68;4.13;;;;;;;;;;5034542;28;20025;-79
2022/07/23 13:40:44;;;;;;;7.85;4.22;;;;;;;;;;5041754;28;20132;-74
2022/07/23 13:43:11;;;;;;;8.10;3.90;;;;;;;;;;5039079;28;20368;-73
2022/07/23 13:45:36;;;;;;;5.93;3.58;;;;;;;;;;5035394;28;20024;-74
2022/07/23 13:48:02;;;;;;;5.65;3.80;;;;;;;;;;5034435;28;20036;-73
2022/07/23 13:50:28;;;;;;;9.27;4.03;;;;;;;;;;5038969;28;20102;-75
2022/07/23 13:52:53;;;;;;;9.43;3.80;;;;;;;;;;5033154;28;20137;-75
2022/07/23 13:55:19;;;;;;;5.97;3.60;;;;;;;;;;5041760;28;20037;-74
2022/07/23 13:57:44;;;;;;;6.80;4.28;;;;;;;;;;5041856;28;20028;-75
2022/07/23 14:00:10;;;;;;;7.13;3.63;;;;;;;;;;5029359;28;20021;-75
2022/07/23 14:02:39;;;;;;;6.40;4.03;;;;;;;;;;5028096;28;20148;-73
2022/07/23 14:05:08;;;;;;;6.65;3.60;;;;;;;;;;5038172;28;20122;-74
2022/07/23 14:07:35;;;;;;;8.13;4.10;;;;;;;;;;5041820;28;20086;-80
2022/07/23 14:10:00;;;;;;;8.50;3.35;;;;;;;;;;5042742;28;20025;-76
2022/07/23 14:12:26;;;;;;;9.38;4.53;;;;;;;;;;5042413;28;20041;-75
2022/07/23 14:14:51;;;;;;;7.32;3.90;;;;;;;;;;5042512;28;20037;-74
2022/07/23 14:17:17;;;;;;;5.43;3.47;;;;;;;;;;5035020;28;20033;-80
2022/07/23 14:19:43;;;;;;;8.13;3.60;;;;;;;;;;5033416;28;20021;-75
2022/07/23 14:22:08;;;;;;;7.15;3.67;;;;;;;;;;5034343;28;20756;-80
2022/07/23 14:24:33;;;;;;;9.48;3.90;;;;;;;;;;5036934;28;20025;-78
2022/07/23 14:27:02;;;;;;;10.75;3.85;;;;;;;;;;5029485;28;20032;-81
2022/07/23 14:29:28;;;;;;;7.53;3.85;;;;;;;;;;5025416;28;20021;-76
2022/07/23 14:31:53;;;;;;;4.82;3.40;;;;;;;;;;5028344;28;20674;-78
2022/07/23 14:34:18;;;;;;;7.20;3.38;;;;;;;;;;5031820;28;20036;-75
2022/07/23 14:36:44;;;;;;;6.63;3.35;;;;;;;;;;5039925;28;20492;-82
2022/07/23 14:39:09;;;;;;;7.05;3.30;;;;;;;;;;5040709;28;20089;-76
2022/07/23 14:41:35;;;;;;;3.63;2.80;;;;;;;;;;5038618;28;20028;-75
2022/07/23 14:44:01;;;;;;;5.35;3.30;;;;;;;;;;5025731;28;20028;-82